createdAt,value
2022-10-17T00:00:56.092Z,97.10
2022-10-17T00:03:22.722Z,96.92
2022-10-17T00:05:49.299Z,96.79
2022-10-17T00:08:17.614Z,97.06
2022-10-17T00:10:44.257Z,97.75
2022-10-17T00:13:15.453Z,98.07
2022-10-17T00:15:44.909Z,97.25
2022-10-17T00:18:11.651Z,98.51
2022-10-17T00:20:38.130Z,98.92
2022-10-17T00:23:04.731Z,99.08
2022-10-17T00:25:31.342Z,98.89
2022-10-17T00:28:00.731Z,98.74
2022-10-17T00:30:27.436Z,98.52
2022-10-17T00:33:03.319Z,98.52
2022-10-17T00:35:29.976Z,98.49
2022-10-17T00:38:03.811Z,97.39
2022-10-17T00:40:32.512Z,98.01
2022-10-17T00:42:59.041Z,98.32
2022-10-17T00:45:31.565Z,98.04
2022-10-17T00:48:10.023Z,98.47
2022-10-17T00:50:40.175Z,98.68
2022-10-17T00:53:10.774Z,99.16
2022-10-17T00:55:51.096Z,98.52
2022-10-17T00:58:19.158Z,98.53
2022-10-17T01:00:49.599Z,98.45
2022-10-17T01:03:21.630Z,97.85
2022-10-17T01:05:49.884Z,98.51
2022-10-17T01:08:16.853Z,99.14
2022-10-17T01:10:48.579Z,99.01
2022-10-17T01:13:42.987Z,98.94
2022-10-17T01:16:49.129Z,97.93
2022-10-17T01:19:28.034Z,98.39
2022-10-17T01:22:19.111Z,98.80
2022-10-17T01:25:14.609Z,98.72
2022-10-17T01:28:20.026Z,97.65
2022-10-17T01:31:05.741Z,99.04
2022-10-17T01:33:53.600Z,99.18
2022-10-17T01:36:22.930Z,98.66
2022-10-17T01:38:55.164Z,98.49
2022-10-17T01:41:44.440Z,97.97
2022-10-17T01:44:28.131Z,98.30
2022-10-17T01:47:01.894Z,98.89
2022-10-17T01:49:32.110Z,98.61
2022-10-17T01:52:08.895Z,98.39
2022-10-17T01:54:49.655Z,98.80
2022-10-17T01:57:29.854Z,98.06
2022-10-17T01:59:57.458Z,98.12
2022-10-17T02:02:29.355Z,98.07
2022-10-17T02:04:58.810Z,97.06
2022-10-17T02:07:25.601Z,97.58
2022-10-17T02:09:52.619Z,98.06
2022-10-17T02:12:42.992Z,96.98
2022-10-17T02:15:42.543Z,96.88
2022-10-17T02:18:36.800Z,96.72
2022-10-17T02:21:09.005Z,96.88
2022-10-17T02:23:48.655Z,97.89
2022-10-17T02:26:25.967Z,97.49
2022-10-17T02:29:01.645Z,97.14
2022-10-17T02:31:41.939Z,97.10
2022-10-17T02:34:16.255Z,96.67
2022-10-17T02:36:48.270Z,96.47
2022-10-17T02:39:16.463Z,97.19
2022-10-17T02:44:27.612Z,97.36
2022-10-17T02:47:03.802Z,97.04
2022-10-17T02:49:36.620Z,97.34
2022-10-17T02:52:41.113Z,97.35
2022-10-17T02:55:24.525Z,97.47
2022-10-17T02:57:59.062Z,98.08
2022-10-17T03:00:28.767Z,97.27
2022-10-17T03:03:01.907Z,97.64
2022-10-17T03:05:29.740Z,97.57
2022-10-17T03:07:57.044Z,97.16
2022-10-17T03:10:25.985Z,97.01
2022-10-17T03:12:54.675Z,97.03
2022-10-17T03:15:21.257Z,96.62
2022-10-17T03:17:47.767Z,96.75
2022-10-17T03:20:14.561Z,96.90
2022-10-17T03:22:41.083Z,97.10
2022-10-17T03:25:09.100Z,97.40
2022-10-17T03:27:35.725Z,97.91
2022-10-17T03:30:02.321Z,98.62
2022-10-17T03:32:28.764Z,98.26
2022-10-17T03:34:55.228Z,97.24
2022-10-17T03:37:21.782Z,98.20
2022-10-17T03:39:48.298Z,98.56
2022-10-17T03:42:14.748Z,97.86
2022-10-17T03:44:41.232Z,98.31
2022-10-17T03:47:09.330Z,97.73
2022-10-17T03:49:41.843Z,98.79
2022-10-17T03:52:12.702Z,98.59
2022-10-17T03:54:39.247Z,98.27
2022-10-17T03:57:05.786Z,98.03
2022-10-17T03:59:32.387Z,98.78
2022-10-17T04:01:58.803Z,99.03
2022-10-17T04:04:25.416Z,99.02
2022-10-17T04:06:51.888Z,98.44
2022-10-17T04:09:18.443Z,98.84
2022-10-17T04:11:44.996Z,98.70
2022-10-17T04:14:11.551Z,99.02
2022-10-17T04:16:38.829Z,98.77
2022-10-17T04:19:05.649Z,99.20
2022-10-17T04:21:32.247Z,98.98
2022-10-17T04:24:00.741Z,99.23
2022-10-17T04:26:28.158Z,99.23
2022-10-17T04:28:54.803Z,99.11
2022-10-17T04:31:21.382Z,98.73
2022-10-17T04:33:49.349Z,98.93
2022-10-17T04:36:18.973Z,99.19
2022-10-17T04:38:49.552Z,98.92
2022-10-17T04:41:20.045Z,98.88
2022-10-17T04:43:51.034Z,99.10
2022-10-17T04:46:18.466Z,98.61
2022-10-17T04:48:45.213Z,98.16
2022-10-17T04:51:15.011Z,98.35
2022-10-17T04:53:43.157Z,98.75
2022-10-17T04:56:18.155Z,98.80
2022-10-17T04:58:45.646Z,99.08
2022-10-17T05:01:15.786Z,98.63
2022-10-17T05:03:48.564Z,98.92
2022-10-17T05:06:24.243Z,98.80
2022-10-17T05:08:50.889Z,98.73
2022-10-17T05:11:28.916Z,98.53
2022-10-17T05:13:57.860Z,98.54
2022-10-17T05:16:25.762Z,98.55
2022-10-17T05:18:55.167Z,98.07
2022-10-17T05:21:25.166Z,97.91
2022-10-17T05:23:53.038Z,98.69
2022-10-17T05:26:19.908Z,98.96
2022-10-17T05:28:46.580Z,98.15
2022-10-17T05:31:13.359Z,97.76
2022-10-17T05:33:42.094Z,97.53
2022-10-17T05:36:11.713Z,97.68
2022-10-17T05:38:38.303Z,97.76
2022-10-17T05:41:06.118Z,97.85
2022-10-17T05:43:34.387Z,97.58
2022-10-17T05:46:05.093Z,97.89
2022-10-17T05:48:32.064Z,98.24
2022-10-17T05:51:00.543Z,98.39
2022-10-17T05:53:30.079Z,98.63
2022-10-17T05:55:58.831Z,98.83
2022-10-17T05:58:45.543Z,98.53
2022-10-17T06:01:15.427Z,97.37
2022-10-17T06:03:42.011Z,97.31
2022-10-17T06:06:13.263Z,97.45
2022-10-17T06:08:40.612Z,96.75
2022-10-17T06:11:09.968Z,96.57
2022-10-17T06:13:37.992Z,96.23
2022-10-17T06:16:04.703Z,95.67
2022-10-17T06:18:31.350Z,95.37
2022-10-17T06:21:05.696Z,94.73
2022-10-17T06:23:32.467Z,95.51
2022-10-17T06:26:02.977Z,97.00
2022-10-17T06:28:30.136Z,97.01
2022-10-17T06:30:57.838Z,97.45
2022-10-17T06:33:24.695Z,97.19
2022-10-17T06:35:52.636Z,97.27
2022-10-17T06:38:19.481Z,97.23
2022-10-17T06:40:46.009Z,97.12
2022-10-17T06:43:12.743Z,96.62
2022-10-17T06:45:40.239Z,95.54
2022-10-17T06:48:07.849Z,95.33
2022-10-17T06:50:34.812Z,95.19
2022-10-17T06:53:01.327Z,95.05
2022-10-17T06:55:27.806Z,94.55
2022-10-17T06:57:57.007Z,94.61
2022-10-17T07:00:26.884Z,94.25
2022-10-17T07:02:53.552Z,94.12
2022-10-17T07:05:20.198Z,92.96
2022-10-17T07:07:51.076Z,91.57
2022-10-17T07:10:18.684Z,90.91
2022-10-17T07:12:45.969Z,90.41
2022-10-17T07:15:13.149Z,88.95
2022-10-17T07:17:39.833Z,89.02
2022-10-17T07:20:09.967Z,89.56
2022-10-17T07:22:39.476Z,88.48
2022-10-17T07:25:07.876Z,87.41
2022-10-17T07:27:34.610Z,86.88
2022-10-17T07:30:01.219Z,84.74
2022-10-17T07:32:27.753Z,84.41
2022-10-17T07:34:57.496Z,84.91
2022-10-17T07:37:24.214Z,84.30
2022-10-17T07:39:51.114Z,83.21
2022-10-17T07:42:17.827Z,81.55
2022-10-17T07:44:47.592Z,82.30
2022-10-17T07:47:14.262Z,82.12
2022-10-17T07:49:42.673Z,80.46
2022-10-17T07:52:13.808Z,80.85
2022-10-17T07:54:40.437Z,78.04
2022-10-17T07:57:07.726Z,78.64
2022-10-17T07:59:35.535Z,81.10
2022-10-17T08:02:02.157Z,80.76
2022-10-17T08:04:29.248Z,80.52
2022-10-17T08:07:05.465Z,79.67
2022-10-17T08:09:38.389Z,79.90
2022-10-17T08:12:05.361Z,79.80
2022-10-17T08:14:34.401Z,81.28
2022-10-17T08:17:06.060Z,81.38
2022-10-17T08:19:33.553Z,82.00
2022-10-17T08:22:01.232Z,81.58
2022-10-17T08:24:28.135Z,81.84
2022-10-17T08:26:56.252Z,80.53
2022-10-17T08:29:22.900Z,81.25
2022-10-17T08:31:52.405Z,82.20
2022-10-17T08:34:29.516Z,83.02
2022-10-17T08:36:56.861Z,82.35
2022-10-17T08:39:23.508Z,83.28
2022-10-17T08:42:02.112Z,82.00
2022-10-17T08:44:50.592Z,81.86
2022-10-17T08:47:27.804Z,82.92
2022-10-17T08:49:59.403Z,83.27
2022-10-17T08:52:49.025Z,80.77
2022-10-17T08:55:23.669Z,81.32
2022-10-17T08:58:00.062Z,80.83
2022-10-17T09:00:30.193Z,81.11
2022-10-17T09:02:59.618Z,81.29
2022-10-17T09:05:35.175Z,80.52
2022-10-17T09:08:16.447Z,80.14
2022-10-17T09:11:23.499Z,80.57
2022-10-17T09:14:11.105Z,79.94
2022-10-17T09:17:16.840Z,80.76
2022-10-17T09:20:05.816Z,80.67
2022-10-17T09:22:50.290Z,80.57
2022-10-17T09:25:20.050Z,80.42
2022-10-17T09:27:50.590Z,80.65
2022-10-17T09:30:54.479Z,80.15
2022-10-17T09:33:35.409Z,80.13
2022-10-17T09:36:08.733Z,79.42
2022-10-17T09:38:42.179Z,79.66
2022-10-17T09:42:01.191Z,79.93
2022-10-17T09:44:45.509Z,80.37
2022-10-17T09:47:33.424Z,79.66
2022-10-17T09:50:09.038Z,80.68
2022-10-17T09:52:47.685Z,79.35
2022-10-17T09:55:50.953Z,79.07
2022-10-17T09:58:17.684Z,80.10
2022-10-17T10:00:49.166Z,79.18
2022-10-17T10:03:18.991Z,78.94
2022-10-17T10:06:05.544Z,79.19
2022-10-17T10:08:38.096Z,78.54
2022-10-17T10:11:09.636Z,78.44
2022-10-17T10:13:40.275Z,79.33
2022-10-17T10:16:22.424Z,79.47
2022-10-17T10:18:51.815Z,79.36
2022-10-17T10:21:26.433Z,78.88
2022-10-17T10:24:10.156Z,78.56
2022-10-17T10:26:46.620Z,78.61
2022-10-17T10:29:34.258Z,78.10
2022-10-17T10:32:22.194Z,78.93
2022-10-17T10:34:59.578Z,79.28
2022-10-17T10:37:34.014Z,78.56
2022-10-17T10:40:18.713Z,78.04
2022-10-17T10:42:54.258Z,78.63
2022-10-17T10:45:51.245Z,78.32
2022-10-17T10:48:38.080Z,78.67
2022-10-17T10:51:13.541Z,79.00
2022-10-17T10:53:53.584Z,77.70
2022-10-17T10:56:26.137Z,77.52
2022-10-17T10:59:14.552Z,77.12
2022-10-17T11:02:05.136Z,77.59
2022-10-17T11:04:59.916Z,77.86
2022-10-17T11:08:20.481Z,77.02
2022-10-17T11:11:19.934Z,76.09
2022-10-17T11:13:58.873Z,76.78
2022-10-17T11:16:43.733Z,76.06
2022-10-17T11:19:16.087Z,76.27
2022-10-17T11:22:38.526Z,76.09
2022-10-17T11:25:13.310Z,75.71
2022-10-17T11:27:40.144Z,75.51
2022-10-17T11:30:07.236Z,75.21
2022-10-17T11:32:44.016Z,74.61
2022-10-17T11:35:34.233Z,73.86
2022-10-17T11:38:28.017Z,73.93
2022-10-17T11:41:03.124Z,74.48
2022-10-17T11:43:41.216Z,75.08
2022-10-17T11:46:24.238Z,74.12
2022-10-17T11:49:17.420Z,73.97
2022-10-17T11:52:01.301Z,73.45
2022-10-17T11:54:56.186Z,73.16
2022-10-17T11:57:39.037Z,71.93
2022-10-17T12:00:17.444Z,72.36
2022-10-17T12:02:55.983Z,72.53
2022-10-17T12:05:34.206Z,73.68
2022-10-17T12:08:19.034Z,72.28
2022-10-17T12:11:06.891Z,70.22
2022-10-17T12:13:33.352Z,71.20
2022-10-17T12:16:21.519Z,71.49
2022-10-17T12:19:06.313Z,72.90
2022-10-17T12:22:01.123Z,71.09
2022-10-17T12:24:45.971Z,69.23
2022-10-17T12:27:35.991Z,69.80
2022-10-17T12:30:14.188Z,71.24
2022-10-17T12:33:06.284Z,71.27
2022-10-17T12:35:35.332Z,71.87
2022-10-17T12:38:18.877Z,71.93
2022-10-17T12:40:50.245Z,71.93
2022-10-17T12:43:17.079Z,71.51
2022-10-17T12:45:51.798Z,70.57
2022-10-17T12:48:36.802Z,70.59
2022-10-17T12:54:00.885Z,69.61
2022-10-17T12:56:40.077Z,69.78
2022-10-17T12:59:22.447Z,67.86
2022-10-17T13:01:58.996Z,67.51
2022-10-17T13:04:28.185Z,67.93
2022-10-17T13:06:58.710Z,68.02
2022-10-17T13:09:32.048Z,67.59
2022-10-17T13:12:03.252Z,67.38
2022-10-17T13:14:32.836Z,67.41
2022-10-17T13:16:59.380Z,67.99
2022-10-17T13:19:34.697Z,67.11
2022-10-17T13:22:07.042Z,67.01
2022-10-17T13:24:39.490Z,67.78
2022-10-17T13:27:22.001Z,68.27
2022-10-17T13:29:50.942Z,67.00
2022-10-17T13:32:17.652Z,67.06
2022-10-17T13:34:44.359Z,67.40
2022-10-17T13:37:15.670Z,68.81
2022-10-17T13:39:55.570Z,69.26
2022-10-17T13:42:27.849Z,67.85
2022-10-17T13:44:57.964Z,67.81
2022-10-17T13:47:45.228Z,69.36
2022-10-17T13:50:43.695Z,70.21
2022-10-17T13:53:32.487Z,70.79
2022-10-17T13:56:29.239Z,71.17
2022-10-17T13:59:21.563Z,70.47
2022-10-17T14:01:49.909Z,69.57
2022-10-17T14:04:20.384Z,68.78
2022-10-17T14:06:49.843Z,69.38
2022-10-17T14:09:25.188Z,69.44
2022-10-17T14:12:17.156Z,69.31
2022-10-17T14:15:09.259Z,69.48
2022-10-17T14:17:41.131Z,69.37
2022-10-17T14:20:57.140Z,69.13
2022-10-17T14:23:21.933Z,69.33
2022-10-17T14:26:12.705Z,70.01
2022-10-17T14:28:41.386Z,69.62
2022-10-17T14:31:20.138Z,68.48
2022-10-17T14:33:50.870Z,67.52
2022-10-17T14:36:29.429Z,66.59
2022-10-17T14:38:58.339Z,64.95
2022-10-17T14:41:47.642Z,64.47
2022-10-17T14:44:29.090Z,64.55
2022-10-17T14:47:38.136Z,66.00
2022-10-17T14:50:12.550Z,65.88
2022-10-17T14:52:40.829Z,66.94
2022-10-17T14:55:28.283Z,65.60
2022-10-17T14:57:57.487Z,67.31
2022-10-17T15:00:28.027Z,67.25
2022-10-17T15:02:56.140Z,67.07
2022-10-17T15:05:25.907Z,66.66
2022-10-17T15:07:58.395Z,67.44
2022-10-17T15:10:42.285Z,68.72
2022-10-17T15:13:27.121Z,68.79
2022-10-17T15:15:54.569Z,70.00
2022-10-17T15:18:21.199Z,69.58
2022-10-17T15:20:51.969Z,69.83
2022-10-17T15:23:26.312Z,69.92
2022-10-17T15:25:57.258Z,70.24
2022-10-17T15:28:24.163Z,70.11
2022-10-17T15:30:53.440Z,69.33
2022-10-17T15:33:20.137Z,69.13
2022-10-17T15:35:51.602Z,68.67
2022-10-17T15:38:18.269Z,68.81
2022-10-17T15:40:48.970Z,68.59
2022-10-17T15:43:25.881Z,69.11
2022-10-17T15:45:52.665Z,69.44
2022-10-17T15:48:32.959Z,69.44
2022-10-17T15:50:59.573Z,68.13
2022-10-17T15:53:28.070Z,69.75
2022-10-17T15:56:00.186Z,70.88
2022-10-17T15:58:36.651Z,71.30
2022-10-17T16:01:51.799Z,71.10
2022-10-17T16:04:29.150Z,71.97
2022-10-17T16:06:55.806Z,71.88
2022-10-17T16:09:22.506Z,72.23
2022-10-17T16:11:48.959Z,72.54
2022-10-17T16:14:18.223Z,72.90
2022-10-17T16:16:44.792Z,73.64
2022-10-17T16:19:11.535Z,73.32
2022-10-17T16:21:40.274Z,73.47
2022-10-17T16:24:09.703Z,73.98
2022-10-17T16:26:36.256Z,74.47
2022-10-17T16:29:04.758Z,74.55
2022-10-17T16:31:34.622Z,75.51
2022-10-17T16:34:02.681Z,75.61
2022-10-17T16:36:33.092Z,75.66
2022-10-17T16:38:59.740Z,76.60
2022-10-17T16:41:30.339Z,76.00
2022-10-17T16:43:59.628Z,76.38
2022-10-17T16:46:28.122Z,76.40
2022-10-17T16:48:57.495Z,76.48
2022-10-17T16:51:24.480Z,77.11
2022-10-17T16:53:54.227Z,77.50
2022-10-17T16:56:25.058Z,77.61
2022-10-17T16:58:51.901Z,77.73
2022-10-17T17:01:21.063Z,78.04
2022-10-17T17:03:48.238Z,78.09
2022-10-17T17:06:24.053Z,78.16
2022-10-17T17:08:51.218Z,78.55
2022-10-17T17:11:20.539Z,78.85
2022-10-17T17:13:48.875Z,79.22
2022-10-17T17:16:23.304Z,79.14
2022-10-17T17:18:55.403Z,79.16
2022-10-17T17:21:22.350Z,79.32
2022-10-17T17:23:49.419Z,79.71
2022-10-17T17:26:20.594Z,79.45
2022-10-17T17:28:48.556Z,79.68
2022-10-17T17:31:24.207Z,80.33
2022-10-17T17:33:51.659Z,80.47
2022-10-17T17:36:22.848Z,80.46
2022-10-17T17:38:52.995Z,80.77
2022-10-17T17:41:20.431Z,81.92
2022-10-17T17:43:48.611Z,82.65
2022-10-17T17:46:18.193Z,83.45
2022-10-17T17:48:46.654Z,83.87
2022-10-17T17:51:15.168Z,83.83
2022-10-17T17:53:44.709Z,82.46
2022-10-17T17:56:16.834Z,82.46
2022-10-17T17:58:45.856Z,83.08
2022-10-17T18:01:18.278Z,83.64
2022-10-17T18:03:46.097Z,84.18
2022-10-17T18:06:13.499Z,84.49
2022-10-17T18:08:40.147Z,84.70
2022-10-17T18:11:07.862Z,84.48
2022-10-17T18:13:34.309Z,84.03
2022-10-17T18:16:01.984Z,84.81
2022-10-17T18:18:30.522Z,85.29
2022-10-17T18:21:01.154Z,85.66
2022-10-17T18:23:27.679Z,85.44
2022-10-17T18:26:00.710Z,85.65
2022-10-17T18:28:27.773Z,85.93
2022-10-17T18:30:56.729Z,86.00
2022-10-17T18:33:23.231Z,86.16
2022-10-17T18:35:50.035Z,86.37
2022-10-17T18:38:20.070Z,85.96
2022-10-17T18:40:50.799Z,86.60
2022-10-17T18:43:17.481Z,87.17
2022-10-17T18:45:43.943Z,86.88
2022-10-17T18:48:10.462Z,86.59
2022-10-17T18:50:39.760Z,86.78
2022-10-17T18:53:06.519Z,87.76
2022-10-17T18:55:33.042Z,87.24
2022-10-17T18:58:00.733Z,87.66
2022-10-17T19:00:27.228Z,87.74
2022-10-17T19:02:53.727Z,87.64
2022-10-17T19:05:20.243Z,87.94
2022-10-17T19:07:47.366Z,87.95
2022-10-17T19:10:13.913Z,88.47
2022-10-17T19:12:40.583Z,88.68
2022-10-17T19:15:07.519Z,88.45
2022-10-17T19:17:34.032Z,88.47
2022-10-17T19:20:00.580Z,88.72
2022-10-17T19:22:28.313Z,89.05
2022-10-17T19:24:57.288Z,89.42
2022-10-17T19:27:23.859Z,89.02
2022-10-17T19:29:53.346Z,89.82
2022-10-17T19:32:22.205Z,89.64
2022-10-17T19:34:49.448Z,89.33
2022-10-17T19:37:16.027Z,89.37
2022-10-17T19:39:42.514Z,88.93
2022-10-17T19:42:11.302Z,89.14
2022-10-17T19:44:38.116Z,89.06
2022-10-17T19:47:04.630Z,90.05
2022-10-17T19:49:31.188Z,89.61
2022-10-17T19:51:57.765Z,89.44
2022-10-17T19:54:24.301Z,88.16
2022-10-17T19:56:51.336Z,87.85
2022-10-17T19:59:19.255Z,87.47
2022-10-17T20:01:49.056Z,87.35
2022-10-17T20:04:15.875Z,87.03
2022-10-17T20:06:43.123Z,86.37
2022-10-17T20:09:15.721Z,86.16
2022-10-17T20:11:44.159Z,86.78
2022-10-17T20:14:10.925Z,85.99
2022-10-17T20:16:37.623Z,86.97
2022-10-17T20:19:07.911Z,86.83
2022-10-17T20:21:36.572Z,86.46
2022-10-17T20:24:05.818Z,86.80
2022-10-17T20:26:38.026Z,86.51
2022-10-17T20:29:10.724Z,86.29
2022-10-17T20:31:37.710Z,87.00
2022-10-17T20:34:04.299Z,88.42
2022-10-17T20:36:33.018Z,88.97
2022-10-17T20:39:02.845Z,88.88
2022-10-17T20:41:29.332Z,87.91
2022-10-17T20:43:56.078Z,87.84
2022-10-17T20:46:36.236Z,87.84
2022-10-17T20:49:05.326Z,88.07
2022-10-17T20:51:32.055Z,87.65
2022-10-17T20:53:58.649Z,87.02
2022-10-17T20:56:27.800Z,88.29
2022-10-17T20:58:56.981Z,88.21
2022-10-17T21:01:24.701Z,88.61
2022-10-17T21:03:52.301Z,88.79
2022-10-17T21:06:19.746Z,88.87
2022-10-17T21:08:47.865Z,89.07
2022-10-17T21:11:20.411Z,89.70
2022-10-17T21:13:48.584Z,87.98
2022-10-17T21:16:17.647Z,89.40
2022-10-17T21:18:45.696Z,89.79
2022-10-17T21:21:17.705Z,88.98
2022-10-17T21:23:47.460Z,90.04
2022-10-17T21:26:14.973Z,90.58
2022-10-17T21:28:42.687Z,89.21
2022-10-17T21:31:20.154Z,89.56
2022-10-17T21:33:48.820Z,89.87
2022-10-17T21:36:19.477Z,88.21
2022-10-17T21:38:51.064Z,88.53
2022-10-17T21:41:20.085Z,88.84
2022-10-17T21:43:47.278Z,88.70
2022-10-17T21:46:19.919Z,89.53
2022-10-17T21:48:47.995Z,89.33
2022-10-17T21:51:16.714Z,89.93
2022-10-17T21:53:43.717Z,89.65
2022-10-17T21:56:15.109Z,89.16
2022-10-17T21:58:42.187Z,88.90
2022-10-17T22:01:19.964Z,90.39
2022-10-17T22:03:49.594Z,89.71
2022-10-17T22:06:39.198Z,90.18
2022-10-17T22:09:08.238Z,89.85
2022-10-17T22:11:35.672Z,90.35
2022-10-17T22:14:05.547Z,90.36
2022-10-17T22:16:32.887Z,90.67
2022-10-17T22:19:08.695Z,90.40
2022-10-17T22:21:37.570Z,89.97
2022-10-17T22:24:10.771Z,90.18
2022-10-17T22:26:40.006Z,90.58
2022-10-17T22:29:07.998Z,89.92
2022-10-17T22:31:37.193Z,89.80
2022-10-17T22:34:05.528Z,90.85
2022-10-17T22:36:32.987Z,90.44
2022-10-17T22:38:59.612Z,90.68
2022-10-17T22:41:26.879Z,91.41
2022-10-17T22:43:53.762Z,91.56
2022-10-17T22:46:23.189Z,91.58
2022-10-17T22:48:53.327Z,91.43
2022-10-17T22:51:20.310Z,91.94
2022-10-17T22:53:47.080Z,91.65
2022-10-17T22:56:16.990Z,90.43
2022-10-17T22:58:43.939Z,91.58
2022-10-17T23:01:15.397Z,91.77
2022-10-17T23:03:42.141Z,91.93
2022-10-17T23:06:11.753Z,92.76
2022-10-17T23:08:39.174Z,92.07
2022-10-17T23:11:06.433Z,92.72
2022-10-17T23:13:33.257Z,92.71
2022-10-17T23:16:00.000Z,92.36
2022-10-17T23:18:27.228Z,92.21
2022-10-17T23:20:59.025Z,92.91
2022-10-17T23:23:26.503Z,93.10
2022-10-17T23:25:57.468Z,92.95
2022-10-17T23:28:24.182Z,92.86
2022-10-17T23:30:51.125Z,92.25
2022-10-17T23:33:17.724Z,92.50
2022-10-17T23:35:44.407Z,92.10
2022-10-17T23:38:18.435Z,93.30
2022-10-17T23:40:53.943Z,93.48
2022-10-17T23:43:24.725Z,93.41
2022-10-17T23:45:54.090Z,93.79
2022-10-17T23:48:20.893Z,93.72
2022-10-17T23:50:47.589Z,93.40
2022-10-17T23:53:14.205Z,93.71
2022-10-17T23:55:49.230Z,93.62
2022-10-17T23:58:15.895Z,93.74
